Terminal Aerodrome Forecast
Issued by NWS

Home | Current Version | Previous Version | Text Only | Print | Product List | Glossary On
Versions: 1 2 3 4 5 6 7 8 9 10 11 12 13 14 15 16 17 18 19 20 21 22 23 24 25 26 27 28 29 30 31 32 33
700
FTUS44 KLIX 291120
TAFHDC
TAF
KHDC 291120Z 2912/3012 15011KT P6SM BKN015
     FM291500 15019G25KT P6SM BKN015
     FM291800 15021G28KT P6SM OVC025
     FM300300 16019G26KT P6SM OVC015=

USA.gov is the U.S. government's official web portal to all federal, state and local government web resources and services.